Juno — MZUM3 — position and weather

sailwx.info

Track history (hours):
 
Tides and Currents Weather Stations Pressure Air Temp Water Temp Dewpoint Dewpoint Depression Visibility Wind Speed Wind Dir Waves Ship Positions

Juno

Last reported at 2017-Nov-17 21:53 UTC. Time now 2017-Nov-23 15:20 UTC.
Position N 17°01' W 061°46'.

Type: Pleasure craft. MMSI: 232005260.

Date/timePositionNaut miles runAvg speedWind from/ knotsBaromVisibWave heightAir tempDewpointWater temp
2017-Nov-17 21:53N 17°01' W 061°46'0 0.5
2017-Nov-17 21:29N 17°01' W 061°46'2 4.6
2017-Nov-17 21:00N 17°00' W 061°49'2 2.2
2017-Nov-17 20:18N 17°01' W 061°50'0 0.0
2017-Nov-17 20:00N 17°01' W 061°50'2 3.3
2017-Nov-17 19:31N 16°59' W 061°50'1 2.9
2017-Nov-17 19:00N 17°00' W 061°48'1 1.7
2017-Nov-17 18:30N 16°60' W 061°47'  
2017-Nov-11 21:14N 16°19' W 061°48'2 6.7
2017-Nov-11 21:01N 16°20' W 061°49'4 8.4
2017-Nov-11 20:30N 16°24' W 061°48'4 8.9
2017-Nov-11 20:00N 16°29' W 061°48'4 8.7
2017-Nov-11 19:30N 16°33' W 061°48'5 9.1
2017-Nov-11 19:00N 16°38' W 061°48'4 8.8
2017-Nov-11 18:30N 16°42' W 061°47'5 9.0
2017-Nov-11 18:00N 16°46' W 061°47'4 8.7
2017-Nov-11 17:30N 16°51' W 061°46'4 8.8
2017-Nov-11 17:00N 16°55' W 061°46'4 7.5
2017-Nov-11 16:30N 16°59' W 061°47'2 3.7
2017-Nov-11 15:58N 17°01' W 061°46'0 0.0
2017-Nov-11 15:28N 17°01' W 061°46'0 0.0
2017-Nov-11 14:58N 17°01' W 061°46'0 0.0
2017-Nov-11 14:28N 17°01' W 061°46'0 0.0
2017-Nov-11 13:58N 17°01' W 061°46'0 0.0
2017-Nov-11 13:30N 17°01' W 061°46'  
Track history (hours):
 
Tides and Currents Weather Stations Pressure Air Temp Water Temp Dewpoint Dewpoint Depression Visibility Wind Speed Wind Dir Waves Ship Positions

Juno

Last reported at 2017-Nov-17 21:53 UTC. Time now 2017-Nov-23 15:20 UTC.
Position N 17°01' W 061°46'.

Type: Pleasure craft. MMSI: 232005260.

Date/timePositionNaut miles runAvg speedWind from/ knotsBaromVisibWave heightAir tempDewpointWater temp
2017-Nov-17 21:53N 17°01' W 061°46'0 0.5
2017-Nov-17 21:29N 17°01' W 061°46'2 4.6
2017-Nov-17 21:00N 17°00' W 061°49'2 2.2
2017-Nov-17 20:18N 17°01' W 061°50'0 0.0
2017-Nov-17 20:00N 17°01' W 061°50'2 3.3
2017-Nov-17 19:31N 16°59' W 061°50'1 2.9
2017-Nov-17 19:00N 17°00' W 061°48'1 1.7
2017-Nov-17 18:30N 16°60' W 061°47'  
2017-Nov-11 21:14N 16°19' W 061°48'2 6.7
2017-Nov-11 21:01N 16°20' W 061°49'4 8.4
2017-Nov-11 20:30N 16°24' W 061°48'4 8.9
2017-Nov-11 20:00N 16°29' W 061°48'4 8.7
2017-Nov-11 19:30N 16°33' W 061°48'5 9.1
2017-Nov-11 19:00N 16°38' W 061°48'4 8.8
2017-Nov-11 18:30N 16°42' W 061°47'5 9.0
2017-Nov-11 18:00N 16°46' W 061°47'4 8.7
2017-Nov-11 17:30N 16°51' W 061°46'4 8.8
2017-Nov-11 17:00N 16°55' W 061°46'4 7.5
2017-Nov-11 16:30N 16°59' W 061°47'2 3.7
2017-Nov-11 15:58N 17°01' W 061°46'0 0.0
2017-Nov-11 15:28N 17°01' W 061°46'0 0.0
2017-Nov-11 14:58N 17°01' W 061°46'0 0.0
2017-Nov-11 14:28N 17°01' W 061°46'0 0.0
2017-Nov-11 13:58N 17°01' W 061°46'0 0.0
2017-Nov-11 13:30N 17°01' W 061°46'  

Dump ship's entire track history